Time;durP1;ratioP1;P1;durP2;ratioP2;P2;SDS_P1;SDS_P2;PMS_P1;PMS_P2;Temp;Humidity;BMP_temperature;BMP_pressure;BME280_temperature;BME280_humidity;BME280_pressure;Samples;Min_cycle;Max_cycle;Signal;HPM_P1;HPM_P2
2022/11/23 00:02:57;;;;;;;20.85;10.25;;;;;;;5.75;67.59;98398.16;7752068;32;37202;-83
2022/11/23 00:07:13;;;;;;;18.37;9.48;;;;;;;5.59;68.03;98387.38;7765905;32;38956;-83
2022/11/23 00:11:29;;;;;;;20.75;10.23;;;;;;;5.93;67.00;98386.75;7751438;32;39675;-83
2022/11/23 00:15:45;;;;;;;20.33;9.43;;;;;;;5.68;68.13;98394.94;7765852;32;37857;-82
2022/11/23 00:20:01;;;;;;;19.92;10.20;;;;;;;5.92;67.16;98379.72;7765494;32;37950;-83
2022/11/23 00:24:18;;;;;;;19.92;9.43;;;;;;;5.85;66.92;98390.03;7765662;32;39336;-82
2022/11/23 00:28:37;;;;;;;17.62;9.25;;;;;;;5.74;67.80;98391.94;7765328;32;39911;-83
2022/11/23 00:32:54;;;;;;;18.58;9.02;;;;;;;5.61;68.22;98370.87;7765615;32;38653;-82
2022/11/23 00:37:10;;;;;;;16.48;9.05;;;;;;;5.41;68.67;98377.13;7764928;32;37073;-83
2022/11/23 00:41:27;;;;;;;17.83;9.90;;;;;;;5.73;68.04;98376.00;7765493;32;39355;-83
2022/11/23 00:45:43;;;;;;;15.52;8.95;;;;;;;5.84;67.34;98369.47;7765636;32;41614;-83
2022/11/23 00:49:59;;;;;;;19.65;10.07;;;;;;;5.83;67.50;98370.56;7751455;32;37890;-81
2022/11/23 00:54:16;;;;;;;16.87;9.02;;;;;;;6.03;66.90;98372.41;7764983;32;38026;-82
2022/11/23 00:58:33;;;;;;;20.05;9.50;;;;;;;5.61;68.05;98363.59;7765386;32;39305;-83
2022/11/23 01:02:49;;;;;;;14.00;8.50;;;;;;;5.84;67.56;98362.16;7765108;32;39709;-82
2022/11/23 01:07:05;;;;;;;13.88;7.95;;;;;;;6.05;66.37;98362.13;7764885;32;37936;-82
2022/11/23 01:11:23;;;;;;;16.20;9.07;;;;;;;5.63;67.98;98356.00;7765576;32;35302;-83
2022/11/23 01:15:47;;;;;;;14.40;8.07;;;;;;;5.68;67.89;98365.19;7765399;32;38832;-82
2022/11/23 01:20:03;;;;;;;19.30;8.50;;;;;;;5.63;67.92;98364.13;7765196;32;39709;-82
2022/11/23 01:24:21;;;;;;;14.48;7.87;;;;;;;5.51;68.59;98352.00;7764681;32;38620;-82
2022/11/23 01:28:38;;;;;;;14.43;7.82;;;;;;;5.71;66.47;98353.81;7764754;32;37207;-82
2022/11/23 01:32:55;;;;;;;14.98;7.50;;;;;;;5.81;66.85;98342.97;7764978;32;39326;-82
2022/11/23 01:37:11;;;;;;;11.90;7.45;;;;;;;5.82;67.12;98340.00;7764663;32;41054;-82
2022/11/23 01:41:30;;;;;;;15.02;7.93;;;;;;;5.78;66.57;98344.34;7764821;32;37544;-82
2022/11/23 01:45:52;;;;;;;14.10;7.47;;;;;;;5.42;67.65;98330.13;7751216;32;37892;-83
2022/11/23 01:50:08;;;;;;;16.62;7.60;;;;;;;5.72;67.62;98317.59;7750600;32;39286;-83
2022/11/23 01:54:31;;;;;;;14.63;7.62;;;;;;;5.89;66.56;98318.06;7764576;32;40865;-81
2022/11/23 01:58:51;;;;;;;14.43;7.82;;;;;;;5.58;67.59;98312.75;7764378;32;38355;-82
2022/11/23 02:03:08;;;;;;;14.48;7.20;;;;;;;5.73;66.45;98319.22;7787481;32;37201;-82
2022/11/23 02:07:24;;;;;;;13.30;6.85;;;;;;;5.42;67.54;98319.31;7791635;32;40005;-82
2022/11/23 02:11:41;;;;;;;10.95;6.55;;;;;;;5.78;67.13;98317.28;7757575;32;40108;-82
2022/11/23 02:15:58;;;;;;;12.73;7.20;;;;;;;5.81;66.80;98310.50;7764206;32;38622;-82
2022/11/23 02:20:17;;;;;;;13.52;6.65;;;;;;;5.99;66.08;98301.00;7763970;32;37835;-83
2022/11/23 02:24:41;;;;;;;15.55;7.40;;;;;;;5.94;65.93;98304.50;7758577;32;178412;-82
2022/11/23 02:29:22;;;;;;;12.98;6.95;;;;;;;5.94;65.78;98288.28;7750218;32;40707;-82
2022/11/23 02:33:39;;;;;;;10.77;6.43;;;;;;;5.89;66.67;98299.13;7759382;32;38609;-82
2022/11/23 02:37:56;;;;;;;10.85;6.65;;;;;;;6.34;65.10;98300.00;7772613;32;37958;-83
2022/11/23 02:42:12;;;;;;;12.77;6.00;;;;;;;5.87;65.93;98301.31;7772651;32;39969;-83
2022/11/23 02:46:28;;;;;;;13.05;6.30;;;;;;;6.32;65.05;98298.66;7772377;32;39917;-83
2022/11/23 02:50:44;;;;;;;13.00;6.15;;;;;;;6.36;64.68;98302.41;7771942;32;38498;-83
2022/11/23 02:55:00;;;;;;;9.95;5.68;;;;;;;6.41;64.19;98304.28;7772289;32;38360;-83
2022/11/23 02:59:17;;;;;;;11.65;5.82;;;;;;;6.42;63.71;98297.81;7772404;32;39016;-82
2022/11/23 03:03:33;;;;;;;11.40;5.78;;;;;;;6.50;63.86;98316.97;7771779;32;39536;-82
2022/11/23 03:07:49;;;;;;;14.10;5.90;;;;;;;6.38;64.20;98298.38;7771964;32;37517;-82
2022/11/23 03:12:05;;;;;;;10.75;5.78;;;;;;;5.98;65.93;98300.19;7771814;32;37205;-83
2022/11/23 03:16:22;;;;;;;9.98;5.82;;;;;;;6.24;64.49;98296.53;7771860;32;39504;-82
2022/11/23 03:20:38;;;;;;;13.23;5.87;;;;;;;5.92;65.89;98281.53;7771369;32;39943;-83
2022/11/23 03:24:55;;;;;;;10.73;4.85;;;;;;;6.10;65.92;98285.53;7771610;32;37806;-83
2022/11/23 03:29:11;;;;;;;10.43;5.45;;;;;;;6.13;65.22;98291.19;7771510;32;36927;-82
2022/11/23 03:33:27;;;;;;;9.93;5.07;;;;;;;6.18;65.46;98277.63;7771000;32;39342;-80
2022/11/23 03:37:43;;;;;;;8.45;4.80;;;;;;;6.26;65.07;98288.94;7771221;32;40017;-82
2022/11/23 03:41:59;;;;;;;7.80;4.43;;;;;;;6.11;65.09;98293.37;7771445;32;38639;-83
2022/11/23 03:46:15;;;;;;;8.98;4.68;;;;;;;6.04;65.91;98300.16;7752934;32;37141;-83
2022/11/23 03:50:32;;;;;;;10.05;5.03;;;;;;;6.20;64.82;98313.34;7766058;32;40244;-83
2022/11/23 03:54:48;;;;;;;9.35;4.90;;;;;;;6.28;65.13;98309.25;7752229;32;39900;-83
2022/11/23 03:59:04;;;;;;;8.75;4.62;;;;;;;6.01;66.14;98315.87;7766059;32;37747;-83
2022/11/23 04:03:20;;;;;;;9.48;5.22;;;;;;;5.90;66.40;98316.97;7766148;32;37883;-83
2022/11/23 04:07:36;;;;;;;8.82;4.78;;;;;;;6.08;65.69;98315.56;7765989;32;39461;-83
2022/11/23 04:11:53;;;;;;;7.82;4.65;;;;;;;6.10;65.30;98324.22;7751990;32;40387;-83
2022/11/23 04:16:09;;;;;;;7.62;4.75;;;;;;;5.71;66.95;98332.19;7765920;32;38342;-83
2022/11/23 04:20:25;;;;;;;8.00;4.55;;;;;;;6.18;65.82;98333.66;7765819;32;36677;-83
2022/11/23 04:24:41;;;;;;;7.05;4.68;;;;;;;5.95;66.87;98316.97;7765757;32;39885;-82
2022/11/23 04:28:57;;;;;;;7.60;4.60;;;;;;;6.20;65.40;98323.34;7765772;32;40804;-83
2022/11/23 04:33:14;;;;;;;7.78;4.57;;;;;;;5.86;67.40;98305.09;7765610;32;38799;-82
2022/11/23 04:37:30;;;;;;;8.15;5.05;;;;;;;6.34;65.74;98301.91;7765501;32;37024;-83
2022/11/23 04:41:46;;;;;;;9.38;4.45;;;;;;;6.31;65.18;98307.88;7765307;32;40049;-83
2022/11/23 04:46:02;;;;;;;7.55;4.60;;;;;;;6.14;66.03;98308.22;7765399;32;39945;-82
2022/11/23 04:50:18;;;;;;;7.53;4.40;;;;;;;6.25;65.46;98309.00;7765410;32;37729;-82
2022/11/23 04:54:34;;;;;;;9.07;4.60;;;;;;;6.22;65.31;98310.34;7765246;32;37006;-82
2022/11/23 04:58:50;;;;;;;7.30;4.37;;;;;;;6.25;65.54;98315.22;7765140;32;39468;-82
2022/11/23 05:03:06;;;;;;;7.70;4.30;;;;;;;6.03;66.39;98326.41;7765283;32;40775;-82
2022/11/23 05:07:22;;;;;;;7.18;4.03;;;;;;;6.44;64.91;98323.50;7765187;32;37869;-82
2022/11/23 05:11:39;;;;;;;7.37;4.25;;;;;;;6.31;64.83;98324.09;7764917;32;38451;-83
2022/11/23 05:15:55;;;;;;;8.77;4.32;;;;;;;6.42;64.62;98319.47;7765282;32;39037;-83
2022/11/23 05:20:11;;;;;;;7.47;4.30;;;;;;;5.90;66.48;98316.97;7764984;32;40533;-82
2022/11/23 05:24:27;;;;;;;6.47;4.37;;;;;;;5.92;66.29;98312.09;7764963;32;38746;-82
2022/11/23 05:28:43;;;;;;;8.40;4.22;;;;;;;6.28;65.07;98320.06;7765198;32;37133;-83
2022/11/23 05:33:00;;;;;;;6.70;3.75;;;;;;;6.29;65.08;98315.47;7764978;32;39451;-82
2022/11/23 05:37:17;;;;;;;8.05;4.22;;;;;;;6.41;65.00;98313.22;7764479;32;41372;-82
2022/11/23 05:41:33;;;;;;;8.23;4.07;;;;;;;6.17;65.56;98321.22;7764448;32;37546;-83
2022/11/23 05:45:49;;;;;;;5.80;3.85;;;;;;;6.26;65.36;98324.97;7764778;32;37580;-82
2022/11/23 05:50:06;;;;;;;5.85;3.72;;;;;;;5.79;66.37;98335.12;7764858;32;39054;-83
2022/11/23 05:54:22;;;;;;;5.15;3.45;;;;;;;6.28;65.56;98347.13;7764637;32;40769;-83
2022/11/23 05:58:38;;;;;;;7.78;3.87;;;;;;;6.18;65.34;98339.87;7764625;32;38552;-83
2022/11/23 06:03:00;;;;;;;6.50;3.87;;;;;;;6.25;65.76;98346.87;7764411;32;37842;-83
2022/11/23 06:07:16;;;;;;;7.05;3.60;;;;;;;6.35;65.07;98347.63;7763642;32;39319;-83
2022/11/23 06:11:32;;;;;;;6.55;3.35;;;;;;;6.19;65.79;98343.38;7763973;32;39862;-83
2022/11/23 06:15:48;;;;;;;5.10;3.55;;;;;;;5.95;66.83;98348.59;7764226;32;37875;-83
2022/11/23 06:20:06;;;;;;;5.60;3.50;;;;;;;6.17;65.40;98348.25;7764189;32;37842;-83
2022/11/23 06:24:23;;;;;;;4.68;3.33;;;;;;;6.44;65.00;98350.56;7763912;32;39268;-82
2022/11/23 06:28:40;;;;;;;5.68;3.28;;;;;;;6.03;66.07;98349.97;7763921;32;41218;-83
2022/11/23 06:32:56;;;;;;;6.37;3.60;;;;;;;6.32;65.05;98341.97;7763944;32;37857;-82
2022/11/23 06:37:13;;;;;;;6.80;3.72;;;;;;;5.95;66.80;98349.44;7735248;32;37054;-82
2022/11/23 06:41:29;;;;;;;5.10;3.60;;;;;;;5.72;67.37;98350.03;7730063;32;37698;-82
2022/11/23 06:45:47;;;;;;;5.05;3.30;;;;;;;5.94;67.47;98345.09;7735263;32;40597;-82
2022/11/23 06:50:04;;;;;;;3.55;3.00;;;;;;;6.13;66.63;98341.81;7736553;32;37986;-83
2022/11/23 06:54:20;;;;;;;3.75;3.33;;;;;;;6.31;65.28;98346.59;7736566;32;37376;-83
2022/11/23 06:58:42;;;;;;;4.53;3.08;;;;;;;6.20;65.99;98348.50;7736651;32;38898;-83
2022/11/23 07:02:59;;;;;;;4.87;2.97;;;;;;;5.51;68.08;98352.78;7716762;32;39906;-83
2022/11/23 07:07:15;;;;;;;5.93;2.85;;;;;;;6.31;65.89;98362.00;7709100;32;37545;-83
2022/11/23 07:11:31;;;;;;;5.15;3.33;;;;;;;6.35;65.57;98361.16;7709073;32;37163;-87
2022/11/23 07:15:47;;;;;;;4.82;3.15;;;;;;;6.18;66.26;98361.53;7709140;32;40196;-87
2022/11/23 07:20:05;;;;;;;4.00;2.83;;;;;;;6.44;64.97;98355.19;7710838;32;40772;-87
2022/11/23 07:24:21;;;;;;;5.70;3.12;;;;;;;6.05;65.74;98356.69;7712789;32;38657;-87
2022/11/23 07:28:37;;;;;;;3.97;3.10;;;;;;;6.23;65.88;98366.09;7711517;32;36776;-87
2022/11/23 07:32:57;;;;;;;4.80;3.20;;;;;;;6.33;64.36;98368.75;7711266;32;40100;-76
2022/11/23 07:37:13;;;;;;;6.97;3.37;;;;;;;6.11;68.46;98374.53;7732197;32;39962;-77
2022/11/23 07:41:29;;;;;;;4.40;3.08;;;;;;;5.86;67.13;98363.78;7739413;32;38054;-78
2022/11/23 07:45:46;;;;;;;7.62;3.65;;;;;;;6.27;66.07;98361.75;7739348;32;37239;-86
2022/11/23 07:50:06;;;;;;;5.10;3.08;;;;;;;6.45;65.34;98367.59;7739843;32;37667;-86
2022/11/23 07:54:22;;;;;;;5.35;2.95;;;;;;;6.36;66.09;98359.25;7737756;32;39309;-88
2022/11/23 07:58:38;;;;;;;6.18;3.05;;;;;;;6.49;66.30;98360.56;7739147;32;38720;-87
2022/11/23 08:02:56;;;;;;;3.83;2.87;;;;;;;6.34;67.12;98367.66;7737902;32;37056;-85
2022/11/23 08:07:32;;;;;;;3.95;2.87;;;;;;;6.34;66.79;98366.84;7738009;32;39569;-84
2022/11/23 08:11:48;;;;;;;6.70;3.33;;;;;;;6.19;67.75;98376.69;7738798;32;40892;-84
2022/11/23 08:16:04;;;;;;;5.15;3.20;;;;;;;6.50;66.78;98386.53;7738938;32;38592;-87
2022/11/23 08:20:20;;;;;;;5.43;3.05;;;;;;;6.42;66.84;98371.69;7738977;32;37106;-86
2022/11/23 08:24:37;;;;;;;5.30;3.17;;;;;;;6.60;65.45;98381.06;7738906;32;40124;-85
2022/11/23 08:28:53;;;;;;;4.10;3.08;;;;;;;6.17;68.13;98381.56;7738774;32;39597;-85
2022/11/23 08:33:11;;;;;;;5.00;2.95;;;;;;;6.33;67.23;98376.87;7738088;32;38330;-84
2022/11/23 08:37:29;;;;;;;4.80;3.28;;;;;;;6.27;66.94;98378.00;7761581;32;38314;-83
2022/11/23 08:41:45;;;;;;;4.43;3.40;;;;;;;5.83;68.72;98384.09;7765389;32;38982;-85
2022/11/23 08:46:03;;;;;;;5.60;3.53;;;;;;;5.81;68.04;98391.66;7765241;32;39925;-85
2022/11/23 08:50:28;;;;;;;6.00;3.72;;;;;;;5.97;67.95;98387.06;7765463;32;38047;-85
2022/11/23 08:54:44;;;;;;;5.22;3.20;;;;;;;5.78;68.86;98389.50;7751231;32;36015;-86
2022/11/23 08:59:00;;;;;;;6.28;3.80;;;;;;;5.92;68.50;98393.25;7765603;32;39246;-83
2022/11/23 09:03:16;;;;;;;5.78;3.40;;;;;;;6.13;67.27;98393.22;7765346;32;40752;-83
2022/11/23 09:07:32;;;;;;;5.37;3.33;;;;;;;6.33;68.07;98395.84;7765132;32;37855;-83
2022/11/23 09:11:49;;;;;;;8.60;4.10;;;;;;;6.42;66.95;98389.84;7765182;32;38696;-82
2022/11/23 09:16:06;;;;;;;5.00;3.12;;;;;;;6.39;67.18;98392.00;7765161;32;38998;-81
2022/11/23 09:20:22;;;;;;;4.45;3.20;;;;;;;6.52;67.07;98396.00;7764972;32;40728;-83
2022/11/23 09:24:38;;;;;;;5.10;3.20;;;;;;;6.26;66.97;98400.75;7765228;32;37718;-82
2022/11/23 09:28:54;;;;;;;5.90;3.12;;;;;;;5.94;67.92;98393.78;7764365;32;37115;-81
2022/11/23 09:33:10;;;;;;;5.60;3.10;;;;;;;6.08;68.04;98396.75;7765186;32;39378;-85
2022/11/23 09:37:26;;;;;;;8.07;3.15;;;;;;;5.96;68.83;98399.75;7764528;32;40829;-82
2022/11/23 09:41:50;;;;;;;4.55;3.30;;;;;;;6.43;67.26;98396.88;7764160;32;37850;-76
2022/11/23 09:46:30;;;;;;;4.80;2.90;;;;;;;6.41;66.93;98393.63;7750579;32;37932;-84
2022/11/23 09:50:59;;;;;;;4.75;3.17;;;;;;;6.61;68.93;98396.22;7759411;32;39487;-84
2022/11/23 09:55:40;;;;;;;6.28;3.40;;;;;;;6.79;66.89;98391.25;7750820;32;39972;-86
2022/11/23 10:00:07;;;;;;;4.93;3.08;;;;;;;6.76;66.39;98374.47;7739232;32;37587;-87
2022/11/23 10:04:23;;;;;;;5.03;3.05;;;;;;;6.61;66.66;98374.56;7764743;32;36727;-86
2022/11/23 10:08:44;;;;;;;4.85;3.35;;;;;;;6.64;65.99;98370.47;7750805;32;39511;-85
2022/11/23 10:13:30;;;;;;;5.87;3.17;;;;;;;6.95;65.65;98388.16;7764387;32;40061;-86
2022/11/23 10:18:14;;;;;;;3.35;2.90;;;;;;;7.14;64.85;98380.16;7764545;32;37825;-86
2022/11/23 10:22:34;;;;;;;5.15;3.42;;;;;;;6.98;65.46;98381.34;7764322;32;38227;-87
2022/11/23 10:26:53;;;;;;;4.93;2.90;;;;;;;6.61;66.84;98377.28;7750646;32;39356;-84
2022/11/23 10:31:18;;;;;;;3.87;2.75;;;;;;;6.93;65.73;98373.25;7763945;32;40508;-82
2022/11/23 10:35:37;;;;;;;5.97;3.70;;;;;;;7.00;66.21;98381.88;7764028;32;37788;-82
2022/11/23 10:39:53;;;;;;;9.63;3.87;;;;;;;6.30;69.09;98393.69;7763969;32;37692;-83
2022/11/23 10:44:38;;;;;;;9.75;3.42;;;;;;;6.92;66.48;98379.78;7763560;32;38936;-82
2022/11/23 10:49:05;;;;;;;5.12;3.30;;;;;;;6.94;66.96;98377.59;7746568;32;40847;-84
2022/11/23 10:53:25;;;;;;;5.85;3.50;;;;;;;6.48;68.32;98377.87;7751097;32;37854;-83
2022/11/23 10:57:44;;;;;;;4.78;3.17;;;;;;;6.90;66.94;98373.84;7767068;32;37027;-83
2022/11/23 11:02:18;;;;;;;6.15;3.83;;;;;;;6.81;67.81;98370.09;7766551;32;39346;-85
2022/11/23 11:06:35;;;;;;;6.07;3.60;;;;;;;6.82;66.43;98366.31;7753481;32;40014;-83
2022/11/23 11:11:03;;;;;;;6.55;3.40;;;;;;;6.68;67.13;98372.34;7752990;32;37819;-84
2022/11/23 11:15:19;;;;;;;5.53;3.70;;;;;;;7.20;66.02;98372.78;7766932;32;37868;-84
2022/11/23 11:19:38;;;;;;;6.68;3.78;;;;;;;7.12;66.57;98373.38;7766782;32;40194;-83
2022/11/23 11:24:00;;;;;;;6.65;3.85;;;;;;;7.15;66.64;98370.91;7766702;32;40006;-83
2022/11/23 11:28:32;;;;;;;7.25;4.10;;;;;;;6.95;67.81;98381.91;7752448;32;38467;-83
2022/11/23 11:33:08;;;;;;;6.30;3.67;;;;;;;7.18;67.15;98390.44;7753095;32;37811;-83
2022/11/23 11:37:35;;;;;;;6.35;3.80;;;;;;;7.10;66.61;98392.63;7766099;32;39353;-83
2022/11/23 11:41:53;;;;;;;5.32;3.75;;;;;;;6.89;67.66;98388.47;7766422;32;40806;-81
2022/11/23 11:46:16;;;;;;;6.25;3.83;;;;;;;6.90;68.52;98384.69;7752749;32;38667;-83
2022/11/23 11:51:06;;;;;;;9.85;3.85;;;;;;;6.81;68.12;98381.72;7766227;32;37655;-83
2022/11/23 11:55:33;;;;;;;6.50;4.15;;;;;;;6.47;69.68;98377.09;7754304;32;40121;-83
2022/11/23 11:59:56;;;;;;;7.80;4.10;;;;;;;6.40;69.57;98376.59;7766267;32;39644;-82
2022/11/23 12:04:20;;;;;;;5.82;3.90;;;;;;;6.63;69.49;98375.09;7765994;32;37847;-82
2022/11/23 12:08:53;;;;;;;6.07;3.78;;;;;;;6.46;70.42;98369.25;7751234;32;37125;-84
2022/11/23 12:13:14;;;;;;;3.87;3.07;;;;;;;6.83;68.83;98373.31;7765510;32;39028;-83
2022/11/23 12:17:48;;;;;;;5.85;3.37;;;;;;;6.84;68.38;98369.53;7765636;32;40037;-82
2022/11/23 12:22:32;;;;;;;6.50;3.78;;;;;;;7.12;67.11;98374.22;7767281;32;37770;-81
2022/11/23 12:27:20;;;;;;;7.90;3.40;;;;;;;7.07;66.79;98378.84;7765595;32;37870;-82
2022/11/23 12:31:53;;;;;;;5.93;3.58;;;;;;;7.38;65.24;98374.00;7764480;32;39431;-81
2022/11/23 12:36:46;;;;;;;5.57;3.20;;;;;;;7.34;66.04;98372.94;7752311;32;41266;-82
2022/11/23 12:41:32;;;;;;;8.38;4.70;;;;;;;7.56;64.64;98368.94;7764307;32;38637;-82
2022/11/23 12:46:06;;;;;;;8.30;4.35;;;;;;;7.23;65.93;98387.69;7753671;32;37083;-82
2022/11/23 12:50:53;;;;;;;9.13;5.12;;;;;;;6.88;67.61;98374.12;7752441;32;39235;-82
2022/11/23 12:55:24;;;;;;;8.73;5.32;;;;;;;7.01;67.49;98371.84;7763665;32;40715;-81
2022/11/23 12:59:47;;;;;;;7.93;4.80;;;;;;;6.76;69.33;98373.62;7751719;32;38600;-82
2022/11/23 13:04:22;;;;;;;7.12;4.80;;;;;;;6.65;69.15;98372.91;7764933;32;37372;-80
2022/11/23 13:08:38;;;;;;;8.40;5.22;;;;;;;7.21;67.94;98365.44;7765148;32;40038;-83
2022/11/23 13:13:09;;;;;;;9.13;5.07;;;;;;;7.15;67.81;98370.91;7765236;32;40893;-83
2022/11/23 13:17:33;;;;;;;9.45;5.50;;;;;;;7.40;66.74;98366.38;7752624;32;38529;-84
2022/11/23 13:21:50;;;;;;;7.82;5.22;;;;;;;7.60;65.56;98369.97;7764171;32;37822;-85
2022/11/23 13:26:27;;;;;;;10.20;5.68;;;;;;;7.20;67.96;98371.97;7750876;32;39258;-84
2022/11/23 13:30:43;;;;;;;9.38;5.47;;;;;;;7.72;65.79;98363.03;7764116;32;39663;-82
2022/11/23 13:35:22;;;;;;;10.15;5.65;;;;;;;7.84;64.91;98359.12;7752499;32;37823;-83
2022/11/23 13:39:50;;;;;;;9.18;5.30;;;;;;;7.71;65.15;98366.06;7765073;32;37015;-83
2022/11/23 13:44:25;;;;;;;8.63;5.30;;;;;;;7.59;65.42;98381.91;7765174;32;40055;-83
2022/11/23 13:48:44;;;;;;;8.57;4.97;;;;;;;7.79;64.96;98381.69;7765042;32;40742;-83
2022/11/23 13:53:25;;;;;;;9.63;5.57;;;;;;;7.78;65.10;98381.97;7752163;32;37859;-83
2022/11/23 13:58:02;;;;;;;12.18;6.20;;;;;;;7.58;65.26;98386.53;7764967;32;37904;-83
2022/11/23 14:02:29;;;;;;;10.85;5.95;;;;;;;7.60;64.98;98388.97;7764756;32;40047;-83
2022/11/23 14:06:46;;;;;;;14.65;6.18;;;;;;;7.52;66.13;98391.19;7764587;32;39623;-83
2022/11/23 14:11:10;;;;;;;13.52;6.93;;;;;;;7.61;65.76;98388.69;7750681;32;38524;-83
2022/11/23 14:15:35;;;;;;;14.60;6.60;;;;;;;7.66;64.99;98385.91;7751664;32;37132;-83
2022/11/23 14:20:33;;;;;;;12.60;6.43;;;;;;;7.74;65.46;98397.22;7751287;32;39471;-83
2022/11/23 14:25:24;;;;;;;12.70;6.10;;;;;;;7.69;65.70;98400.78;7752694;32;39647;-83
2022/11/23 14:30:14;;;;;;;11.55;5.82;;;;;;;7.50;66.07;98406.13;7751635;32;38644;-83
2022/11/23 14:34:37;;;;;;;13.75;6.65;;;;;;;7.54;65.61;98409.91;7763998;32;37283;-83
2022/11/23 14:39:30;;;;;;;14.23;6.43;;;;;;;7.53;65.84;98414.50;7764187;32;39841;-83
2022/11/23 14:43:46;;;;;;;12.48;6.93;;;;;;;7.97;64.32;98398.31;7763902;32;40738;-83
2022/11/23 14:48:29;;;;;;;15.70;8.23;;;;;;;7.77;65.11;98402.88;7763782;32;36811;-83
2022/11/23 14:52:45;;;;;;;13.55;7.37;;;;;;;7.99;64.37;98405.09;7750666;32;35017;-83
2022/11/23 14:57:05;;;;;;;14.63;7.22;;;;;;;7.59;65.03;98412.56;7763662;32;39377;-83
2022/11/23 15:01:24;;;;;;;11.55;6.40;;;;;;;7.67;65.21;98421.97;7749894;32;40760;-83
2022/11/23 15:05:42;;;;;;;10.68;5.32;;;;;;;7.75;64.72;98421.34;7763342;32;37872;-83
2022/11/23 15:10:19;;;;;;;9.90;4.80;;;;;;;7.77;64.88;98421.06;7749926;32;36464;-83
2022/11/23 15:14:42;;;;;;;7.60;4.85;;;;;;;8.02;64.30;98420.81;7751417;32;39376;-83
2022/11/23 15:18:58;;;;;;;10.18;6.40;;;;;;;7.65;65.78;98426.88;7749962;32;39925;-83
2022/11/23 15:23:19;;;;;;;11.48;6.18;;;;;;;7.49;65.91;98428.94;7762815;32;37879;-83
2022/11/23 15:27:38;;;;;;;11.20;6.00;;;;;;;7.50;65.94;98439.50;7749214;32;37178;-83
2022/11/23 15:31:54;;;;;;;12.02;6.22;;;;;;;7.40;66.86;98431.44;7749093;32;38265;-83
2022/11/23 15:36:37;;;;;;;9.60;5.10;;;;;;;7.56;66.45;98436.75;7761420;32;40233;-82
2022/11/23 15:40:53;;;;;;;9.77;5.27;;;;;;;7.25;66.74;98435.09;7764434;32;37523;-83
2022/11/23 15:45:48;;;;;;;11.05;7.30;;;;;;;7.45;66.03;98436.81;7766483;32;36689;-83
2022/11/23 15:50:08;;;;;;;14.80;8.95;;;;;;;7.55;64.62;98437.81;7755771;32;40077;-83
2022/11/23 15:54:36;;;;;;;16.58;9.82;;;;;;;7.83;63.50;98438.91;7752600;32;39593;-83
2022/11/23 15:58:53;;;;;;;24.75;11.93;;;;;;;7.77;63.48;98446.28;7766682;32;36907;-83
2022/11/23 16:03:33;;;;;;;24.70;12.63;;;;;;;7.68;64.32;98445.31;7766228;32;36918;-83
2022/11/23 16:07:57;;;;;;;21.87;11.73;;;;;;;7.75;64.22;98450.41;7766429;32;40175;-83
2022/11/23 16:12:48;;;;;;;20.80;11.73;;;;;;;7.55;65.09;98451.38;7766116;32;40002;-83
2022/11/23 16:17:19;;;;;;;22.45;12.27;;;;;;;7.65;64.92;98460.22;7753001;32;38662;-83
2022/11/23 16:21:35;;;;;;;19.77;11.43;;;;;;;7.45;66.18;98460.41;7765979;32;36869;-83
2022/11/23 16:26:04;;;;;;;21.60;11.75;;;;;;;7.51;66.20;98457.38;7766126;32;39119;-83
2022/11/23 16:30:26;;;;;;;19.48;9.88;;;;;;;7.79;65.23;98465.00;7751903;32;40355;-83
2022/11/23 16:34:43;;;;;;;15.38;9.20;;;;;;;7.63;65.94;98469.75;7752073;32;37912;-83
2022/11/23 16:38:59;;;;;;;20.20;10.00;;;;;;;7.47;66.86;98472.59;7765833;32;37331;-83
2022/11/23 16:43:21;;;;;;;17.52;10.23;;;;;;;7.36;67.02;98476.47;7765809;32;39554;-83
2022/11/23 16:47:49;;;;;;;17.35;10.82;;;;;;;7.67;66.05;98476.22;7765613;32;39808;-83
2022/11/23 16:52:10;;;;;;;17.75;10.55;;;;;;;7.64;66.15;98474.06;7752854;32;37825;-83
2022/11/23 16:56:27;;;;;;;19.77;10.75;;;;;;;7.62;66.15;98481.69;7765645;32;38091;-83
2022/11/23 17:00:43;;;;;;;21.00;11.95;;;;;;;7.79;65.60;98482.09;7751788;32;39890;-83
2022/11/23 17:04:59;;;;;;;21.08;12.45;;;;;;;7.68;65.89;98469.72;7751528;32;40015;-82
2022/11/23 17:09:16;;;;;;;19.05;11.57;;;;;;;7.58;66.26;98486.88;7765326;32;38868;-83
2022/11/23 17:13:32;;;;;;;18.65;11.45;;;;;;;7.40;66.84;98484.84;7765400;32;37136;-83
2022/11/23 17:17:49;;;;;;;19.60;11.45;;;;;;;7.82;65.71;98486.13;7751461;32;39207;-83
2022/11/23 17:22:05;;;;;;;22.08;11.85;;;;;;;7.45;67.13;98488.34;7765273;32;40821;-83
2022/11/23 17:26:33;;;;;;;18.23;10.35;;;;;;;7.54;67.16;98491.25;7765225;32;37504;-83
2022/11/23 17:30:49;;;;;;;21.83;11.80;;;;;;;7.63;66.84;98499.59;7765161;32;36906;-83
2022/11/23 17:35:06;;;;;;;22.02;11.77;;;;;;;7.90;65.86;98494.47;7751272;32;39486;-83
2022/11/23 17:39:27;;;;;;;19.65;11.60;;;;;;;7.79;66.35;98503.78;7764571;32;39990;-83
2022/11/23 17:43:43;;;;;;;20.92;12.82;;;;;;;7.55;67.16;98509.13;7751401;32;37573;-83
2022/11/23 17:47:59;;;;;;;21.33;11.98;;;;;;;7.44;67.61;98505.69;7764835;32;37931;-83
2022/11/23 17:52:18;;;;;;;21.08;12.35;;;;;;;7.66;66.90;98501.75;7765032;32;39427;-83
2022/11/23 17:56:35;;;;;;;23.33;12.88;;;;;;;7.34;67.85;98506.56;7764786;32;40801;-83
2022/11/23 18:00:51;;;;;;;21.83;11.77;;;;;;;7.91;66.28;98506.13;7751092;32;38072;-83
2022/11/23 18:05:07;;;;;;;27.48;15.48;;;;;;;7.59;67.09;98501.25;7763552;32;36902;-83
2022/11/23 18:09:24;;;;;;;29.73;15.95;;;;;;;7.36;68.00;98505.50;7764725;32;40062;-83
2022/11/23 18:13:41;;;;;;;26.08;14.82;;;;;;;7.30;67.84;98507.44;7764606;32;40810;-83
2022/11/23 18:17:57;;;;;;;23.30;13.88;;;;;;;7.08;68.71;98522.19;7764769;32;37517;-83
2022/11/23 18:22:19;;;;;;;23.45;12.98;;;;;;;7.39;67.93;98508.44;7764476;32;36972;-83
2022/11/23 18:26:35;;;;;;;18.27;11.35;;;;;;;7.43;67.31;98506.78;7764349;32;39475;-83
2022/11/23 18:30:52;;;;;;;21.55;12.55;;;;;;;7.28;67.92;98504.19;7764084;32;40696;-82
2022/11/23 18:35:08;;;;;;;21.95;12.65;;;;;;;7.54;67.08;98496.69;7763971;32;38733;-83
2022/11/23 18:39:25;;;;;;;24.77;13.02;;;;;;;7.40;67.59;98501.13;7764199;32;38086;-83
2022/11/23 18:43:41;;;;;;;25.98;14.25;;;;;;;7.69;66.77;98503.88;7764118;32;38986;-83
2022/11/23 18:47:57;;;;;;;29.50;15.18;;;;;;;7.65;67.03;98502.84;7762509;32;40078;-83
2022/11/23 18:52:13;;;;;;;32.25;18.70;;;;;;;7.91;66.31;98503.41;7762085;32;37930;-84
2022/11/23 18:56:30;;;;;;;22.48;13.10;;;;;;;7.84;66.24;98503.75;7762642;32;37165;-83
2022/11/23 19:00:46;;;;;;;20.08;9.88;;;;;;;7.60;66.49;98506.38;7763414;32;40075;-84
2022/11/23 19:05:03;;;;;;;17.05;9.93;;;;;;;7.96;65.58;98511.50;7763270;32;40726;-83
2022/11/23 19:09:20;;;;;;;18.30;11.05;;;;;;;7.87;65.73;98516.75;7762889;32;38706;-85
2022/11/23 19:13:37;;;;;;;13.13;8.40;;;;;;;7.79;66.00;98514.63;7763353;32;36601;-83
2022/11/23 19:17:53;;;;;;;14.68;7.37;;;;;;;7.96;65.90;98510.72;7766455;32;39942;-83
2022/11/23 19:22:10;;;;;;;13.35;8.32;;;;;;;8.14;64.96;98526.28;7765285;32;40732;-86
2022/11/23 19:26:27;;;;;;;13.82;8.15;;;;;;;7.67;66.53;98522.34;7765437;32;37958;-83
2022/11/23 19:30:43;;;;;;;15.80;8.98;;;;;;;7.58;67.14;98532.19;7766296;32;38726;-83
2022/11/23 19:35:00;;;;;;;18.58;10.20;;;;;;;8.04;65.67;98532.59;7766072;32;40117;-83
2022/11/23 19:39:16;;;;;;;17.90;9.50;;;;;;;7.87;66.10;98533.03;7765792;32;39852;-84
2022/11/23 19:43:32;;;;;;;21.17;10.38;;;;;;;7.61;66.92;98537.06;7766193;32;37962;-84
2022/11/23 19:47:49;;;;;;;19.65;10.95;;;;;;;7.64;67.12;98536.47;7766073;32;37947;-84
2022/11/23 19:52:06;;;;;;;18.20;10.13;;;;;;;7.30;68.30;98553.53;7766222;32;39347;-85
2022/11/23 19:56:23;;;;;;;20.95;11.05;;;;;;;7.77;66.97;98552.09;7765903;32;39907;-84
2022/11/23 20:00:44;;;;;;;22.90;12.05;;;;;;;7.79;66.79;98547.19;7775927;32;37948;-85
2022/11/23 20:05:00;;;;;;;21.92;12.20;;;;;;;7.98;66.23;98551.94;7746080;32;37980;-85
2022/11/23 20:09:21;;;;;;;19.48;12.32;;;;;;;7.88;66.20;98560.97;7765526;32;40170;-83
2022/11/23 20:13:39;;;;;;;20.47;11.97;;;;;;;7.66;67.26;98561.44;7765322;32;40291;-85
2022/11/23 20:17:56;;;;;;;22.08;12.95;;;;;;;7.81;66.92;98560.47;7764822;32;37793;-85
2022/11/23 20:22:12;;;;;;;20.98;11.88;;;;;;;7.11;69.42;98565.00;7764644;32;37957;-85
2022/11/23 20:26:29;;;;;;;19.08;11.30;;;;;;;7.80;67.13;98569.72;7764614;32;39988;-84
2022/11/23 20:30:45;;;;;;;21.42;10.45;;;;;;;7.70;67.34;98573.31;7764332;32;39625;-85
2022/11/23 20:35:06;;;;;;;19.62;11.00;;;;;;;8.05;66.42;98571.41;7765013;32;37577;-82